Fort Wayne (FWA/KFWA)

Map

Destinations

Information

Location
Fort Wayne, IN
Local Time
01:01 / 1:01 am
GMT Time
06:01 / 6:01 am
Gates
No FAA reported delays
METAR KFWA 140554Z 32013G24KT 10SM OVC016 M04/M07 A2964 RMK AO2 PK WND 32027/0505 SNE25 SLP046 4/001 P0000 60001 T10391067 10022 21039 53066 $
TAF KFWA 140539Z 1406/1506 31018G30KT 6SM -SN SCT015 BKN025 TEMPO 1406/1407 3SM -SN BKN015 FM140900 34011G17KT P6SM SCT020 BKN035 FM141200 34008KT P6SM FEW090 FM142100 27006KT P6SM FEW040 BKN200